Mercur 309 — YP2004 — position and weather

sailwx.info

Track history (hours):
 
Tides and Currents Weather Stations Pressure Air Temp Water Temp Dewpoint Dewpoint Depression Visibility Wind Speed Wind Dir Waves Ship Positions

Mercur 309

Last reported at 2017-Nov-24 01:47 UTC. Time now 2017-Nov-24 09:28 UTC.
Position N 44°42' E 020°57'.

Length 250 m; draft 2.4 m.

Type: Ship. MMSI: 264162004.

Date/timePositionNaut miles runAvg speedWind from/ knotsBaromVisibWave heightAir tempDewpointWater temp
2017-Nov-24 01:47N 44°42' E 020°57'1 0.3
2017-Nov-23 20:44N 44°41' E 020°56'1 2.9
2017-Nov-23 20:31N 44°41' E 020°57'1 2.1
2017-Nov-23 19:57N 44°40' E 020°55'0 0.2
2017-Nov-23 19:30N 44°40' E 020°55'0 0.3
2017-Nov-23 19:01N 44°40' E 020°55'0 0.1
2017-Nov-23 18:25N 44°40' E 020°55'0 0.1
2017-Nov-23 17:44N 44°40' E 020°55'0 0.3
2017-Nov-23 17:30N 44°40' E 020°55'2 2.4
2017-Nov-23 16:47N 44°40' E 020°53'2 6.3
2017-Nov-23 16:27N 44°39' E 020°50'3 6.4
2017-Nov-23 16:00N 44°40' E 020°46'3 6.0
2017-Nov-23 15:30N 44°42' E 020°43'7 5.7
2017-Nov-23 14:15N 44°48' E 020°38'0 1.1
2017-Nov-23 14:00N 44°48' E 020°38'0 0.1
2017-Nov-23 13:30N 44°48' E 020°38'2 4.5
2017-Nov-23 13:00N 44°50' E 020°39'1 1.2
2017-Nov-23 12:30N 44°51' E 020°39'0 0.6
2017-Nov-23 12:00N 44°51' E 020°39'2 4.0
2017-Nov-23 11:30N 44°49' E 020°39'1 2.3
2017-Nov-23 11:00N 44°48' E 020°38'2 3.4
2017-Nov-23 10:30N 44°49' E 020°39'3 5.7
2017-Nov-23 10:00N 44°51' E 020°36'3 6.3
2017-Nov-23 09:30N 44°50' E 020°32'3 6.4
2017-Nov-23 09:00N 44°50' E 020°27'3 6.5
2017-Nov-23 08:30N 44°52' E 020°23'3 6.3
2017-Nov-23 08:00N 44°54' E 020°21'3 6.5
2017-Nov-23 07:30N 44°57' E 020°18'3 6.0
2017-Nov-23 07:00N 44°60' E 020°18'3 6.3
2017-Nov-23 06:30N 45°01' E 020°22'3 6.6
2017-Nov-23 05:59N 45°05' E 020°20'5 6.8
2017-Nov-23 05:15N 45°09' E 020°16'2 6.7
2017-Nov-23 05:00N 45°10' E 020°14'4 6.8
2017-Nov-23 04:24N 45°10' E 020°08'2 5.3
2017-Nov-23 03:58N 45°10' E 020°05'5 7.4
2017-Nov-23 03:15N 45°11' E 019°58'1 3.4
2017-Nov-23 03:00N 45°12' E 019°57'4 4.2
2017-Nov-23 02:03N 45°15' E 019°54'  
2017-Nov-17 20:39N 45°52' E 018°51'18 1.8
2017-Nov-17 10:13N 45°34' E 018°54'6 0.6
2017-Nov-17 00:11N 45°30' E 019°00'0 2.8
2017-Nov-17 00:00N 45°29' E 018°60'1 2.8
2017-Nov-16 23:30N 45°28' E 018°59'1 2.9
2017-Nov-16 23:00N 45°27' E 018°59'1 2.9
2017-Nov-16 22:30N 45°26' E 019°01'1 2.5
2017-Nov-16 22:00N 45°25' E 019°02'1 2.7
2017-Nov-16 21:29N 45°24' E 018°60'1 2.7
2017-Nov-16 20:56N 45°23' E 018°58'1 2.7
2017-Nov-16 20:30N 45°22' E 018°59'2 3.1
2017-Nov-16 19:54N 45°21' E 019°01'17 2.6
2017-Nov-16 13:39N 45°14' E 019°22'0 2.8
2017-Nov-16 13:30N 45°14' E 019°23'1 2.9
2017-Nov-16 13:00N 45°14' E 019°25'1 2.9
2017-Nov-16 12:30N 45°14' E 019°27'2 2.8
2017-Nov-16 11:40N 45°15' E 019°30'7 2.3
2017-Nov-16 08:33N 45°13' E 019°40'0 2.9
2017-Nov-16 08:23N 45°14' E 019°41'2 3.2
2017-Nov-16 07:51N 45°14' E 019°43'1 2.4
2017-Nov-16 07:26N 45°14' E 019°45'5 0.7
2017-Nov-16 00:15N 45°15' E 019°51'0 0.0
2017-Nov-16 00:00N 45°15' E 019°51'0 0.0
2017-Nov-15 23:30N 45°15' E 019°51'0 0.0
2017-Nov-15 22:31N 45°15' E 019°51'0 0.0
2017-Nov-15 22:27N 45°15' E 019°51'0 0.0
2017-Nov-15 22:00N 45°15' E 019°51'0 0.1
2017-Nov-15 21:27N 45°15' E 019°51'2 5.2
2017-Nov-15 21:00N 45°13' E 019°50'0 0.4
2017-Nov-15 20:30N 45°13' E 019°49'0 0.0
2017-Nov-15 19:22N 45°13' E 019°49'0 0.0
2017-Nov-15 19:00N 45°13' E 019°49'2 1.1
2017-Nov-15 17:20N 45°15' E 019°52'1 1.3
2017-Nov-15 16:37N 45°15' E 019°51'0 0.0
2017-Nov-15 16:29N 45°15' E 019°51'0 0.0
2017-Nov-15 15:49N 45°15' E 019°51'0 0.0
2017-Nov-15 15:30N 45°15' E 019°51'0 0.0
2017-Nov-15 14:51N 45°15' E 019°51'0 0.0
2017-Nov-15 14:30N 45°15' E 019°51'0 0.0
2017-Nov-15 14:00N 45°15' E 019°51'0 0.0
2017-Nov-15 13:20N 45°15' E 019°51'0 0.0
2017-Nov-15 12:48N 45°15' E 019°51'0 0.0
2017-Nov-15 12:30N 45°15' E 019°51'2 4.8
2017-Nov-15 11:59N 45°13' E 019°49'0 0.0
2017-Nov-15 11:29N 45°13' E 019°49'0 0.0
2017-Nov-15 10:56N 45°13' E 019°49'0 0.0
2017-Nov-15 10:05N 45°13' E 019°49'0 0.0
2017-Nov-15 09:54N 45°13' E 019°49'0 0.0
2017-Nov-15 09:22N 45°13' E 019°49'0 0.0
2017-Nov-15 08:59N 45°13' E 019°49'0 0.0
2017-Nov-15 08:19N 45°13' E 019°49'0 0.0
2017-Nov-15 07:46N 45°13' E 019°49'0 0.0
2017-Nov-15 02:18N 45°13' E 019°49'0 0.4
2017-Nov-15 01:59N 45°13' E 019°49'0 0.0
2017-Nov-15 01:00N 45°13' E 019°49'0 0.0
2017-Nov-15 00:30N 45°13' E 019°49'0 0.0
2017-Nov-14 23:59N 45°13' E 019°49'0 0.0
2017-Nov-14 23:18N 45°13' E 019°49'0 0.0
2017-Nov-14 22:59N 45°13' E 019°49'0 0.0
2017-Nov-14 22:21N 45°13' E 019°49'0 0.0
2017-Nov-14 21:58N 45°13' E 019°49'0 0.0
2017-Nov-14 21:16N 45°13' E 019°49'0 0.0
2017-Nov-14 20:58N 45°13' E 019°49'0 0.0
2017-Nov-14 20:27N 45°13' E 019°49'0 0.0
2017-Nov-14 19:36N 45°13' E 019°49'0 0.0
2017-Nov-14 19:29N 45°13' E 019°49'0 0.0
2017-Nov-14 18:54N 45°13' E 019°49'5 0.9
2017-Nov-14 13:07N 45°12' E 019°56'1 6.6
2017-Nov-14 12:57N 45°12' E 019°58'3 3.4
2017-Nov-14 11:55N 45°10' E 020°02'2 3.5
2017-Nov-14 11:28N 45°10' E 020°04'2 3.7
2017-Nov-14 11:00N 45°10' E 020°07'2 4.0
2017-Nov-14 10:30N 45°11' E 020°10'2 3.1
2017-Nov-14 10:01N 45°11' E 020°12'2 3.3
2017-Nov-14 09:31N 45°10' E 020°14'2 3.2
2017-Nov-14 09:00N 45°09' E 020°15'2 3.4
2017-Nov-14 08:25N 45°07' E 020°17'1 3.2
2017-Nov-14 08:00N 45°06' E 020°18'2 3.1
2017-Nov-14 07:18N 45°05' E 020°20'1 3.2
2017-Nov-14 07:01N 45°04' E 020°21'2 3.3
2017-Nov-14 06:31N 45°02' E 020°22'2 3.4
2017-Nov-14 06:00N 45°01' E 020°22'1 3.0
2017-Nov-14 05:31N 44°60' E 020°20'2 3.3
2017-Nov-14 05:00N 44°59' E 020°18'2 3.2
2017-Nov-14 04:30N 44°58' E 020°17'2 3.1
2017-Nov-14 04:00N 44°56' E 020°18'2 3.2
2017-Nov-14 03:31N 44°55' E 020°20'2 3.5
2017-Nov-14 03:01N 44°54' E 020°21'2 3.4
2017-Nov-14 02:31N 44°52' E 020°22'2 3.3
2017-Nov-14 02:00N 44°51' E 020°24'  
Track history (hours):
 
Tides and Currents Weather Stations Pressure Air Temp Water Temp Dewpoint Dewpoint Depression Visibility Wind Speed Wind Dir Waves Ship Positions

Mercur 309

Last reported at 2017-Nov-24 01:47 UTC. Time now 2017-Nov-24 09:28 UTC.
Position N 44°42' E 020°57'.

Length 250 m; draft 2.4 m.

Type: Ship. MMSI: 264162004.

Date/timePositionNaut miles runAvg speedWind from/ knotsBaromVisibWave heightAir tempDewpointWater temp
2017-Nov-24 01:47N 44°42' E 020°57'1 0.3
2017-Nov-23 20:44N 44°41' E 020°56'1 2.9
2017-Nov-23 20:31N 44°41' E 020°57'1 2.1
2017-Nov-23 19:57N 44°40' E 020°55'0 0.2
2017-Nov-23 19:30N 44°40' E 020°55'0 0.3
2017-Nov-23 19:01N 44°40' E 020°55'0 0.1
2017-Nov-23 18:25N 44°40' E 020°55'0 0.1
2017-Nov-23 17:44N 44°40' E 020°55'0 0.3
2017-Nov-23 17:30N 44°40' E 020°55'2 2.4
2017-Nov-23 16:47N 44°40' E 020°53'2 6.3
2017-Nov-23 16:27N 44°39' E 020°50'3 6.4
2017-Nov-23 16:00N 44°40' E 020°46'3 6.0
2017-Nov-23 15:30N 44°42' E 020°43'7 5.7
2017-Nov-23 14:15N 44°48' E 020°38'0 1.1
2017-Nov-23 14:00N 44°48' E 020°38'0 0.1
2017-Nov-23 13:30N 44°48' E 020°38'2 4.5
2017-Nov-23 13:00N 44°50' E 020°39'1 1.2
2017-Nov-23 12:30N 44°51' E 020°39'0 0.6
2017-Nov-23 12:00N 44°51' E 020°39'2 4.0
2017-Nov-23 11:30N 44°49' E 020°39'1 2.3
2017-Nov-23 11:00N 44°48' E 020°38'2 3.4
2017-Nov-23 10:30N 44°49' E 020°39'3 5.7
2017-Nov-23 10:00N 44°51' E 020°36'3 6.3
2017-Nov-23 09:30N 44°50' E 020°32'3 6.4
2017-Nov-23 09:00N 44°50' E 020°27'3 6.5
2017-Nov-23 08:30N 44°52' E 020°23'3 6.3
2017-Nov-23 08:00N 44°54' E 020°21'3 6.5
2017-Nov-23 07:30N 44°57' E 020°18'3 6.0
2017-Nov-23 07:00N 44°60' E 020°18'3 6.3
2017-Nov-23 06:30N 45°01' E 020°22'3 6.6
2017-Nov-23 05:59N 45°05' E 020°20'5 6.8
2017-Nov-23 05:15N 45°09' E 020°16'2 6.7
2017-Nov-23 05:00N 45°10' E 020°14'4 6.8
2017-Nov-23 04:24N 45°10' E 020°08'2 5.3
2017-Nov-23 03:58N 45°10' E 020°05'5 7.4
2017-Nov-23 03:15N 45°11' E 019°58'1 3.4
2017-Nov-23 03:00N 45°12' E 019°57'4 4.2
2017-Nov-23 02:03N 45°15' E 019°54'  
2017-Nov-17 20:39N 45°52' E 018°51'18 1.8
2017-Nov-17 10:13N 45°34' E 018°54'6 0.6
2017-Nov-17 00:11N 45°30' E 019°00'0 2.8
2017-Nov-17 00:00N 45°29' E 018°60'1 2.8
2017-Nov-16 23:30N 45°28' E 018°59'1 2.9
2017-Nov-16 23:00N 45°27' E 018°59'1 2.9
2017-Nov-16 22:30N 45°26' E 019°01'1 2.5
2017-Nov-16 22:00N 45°25' E 019°02'1 2.7
2017-Nov-16 21:29N 45°24' E 018°60'1 2.7
2017-Nov-16 20:56N 45°23' E 018°58'1 2.7
2017-Nov-16 20:30N 45°22' E 018°59'2 3.1
2017-Nov-16 19:54N 45°21' E 019°01'17 2.6
2017-Nov-16 13:39N 45°14' E 019°22'0 2.8
2017-Nov-16 13:30N 45°14' E 019°23'1 2.9
2017-Nov-16 13:00N 45°14' E 019°25'1 2.9
2017-Nov-16 12:30N 45°14' E 019°27'2 2.8
2017-Nov-16 11:40N 45°15' E 019°30'7 2.3
2017-Nov-16 08:33N 45°13' E 019°40'0 2.9
2017-Nov-16 08:23N 45°14' E 019°41'2 3.2
2017-Nov-16 07:51N 45°14' E 019°43'1 2.4
2017-Nov-16 07:26N 45°14' E 019°45'5 0.7
2017-Nov-16 00:15N 45°15' E 019°51'0 0.0
2017-Nov-16 00:00N 45°15' E 019°51'0 0.0
2017-Nov-15 23:30N 45°15' E 019°51'0 0.0
2017-Nov-15 22:31N 45°15' E 019°51'0 0.0
2017-Nov-15 22:27N 45°15' E 019°51'0 0.0
2017-Nov-15 22:00N 45°15' E 019°51'0 0.1
2017-Nov-15 21:27N 45°15' E 019°51'2 5.2
2017-Nov-15 21:00N 45°13' E 019°50'0 0.4
2017-Nov-15 20:30N 45°13' E 019°49'0 0.0
2017-Nov-15 19:22N 45°13' E 019°49'0 0.0
2017-Nov-15 19:00N 45°13' E 019°49'2 1.1
2017-Nov-15 17:20N 45°15' E 019°52'1 1.3
2017-Nov-15 16:37N 45°15' E 019°51'0 0.0
2017-Nov-15 16:29N 45°15' E 019°51'0 0.0
2017-Nov-15 15:49N 45°15' E 019°51'0 0.0
2017-Nov-15 15:30N 45°15' E 019°51'0 0.0
2017-Nov-15 14:51N 45°15' E 019°51'0 0.0
2017-Nov-15 14:30N 45°15' E 019°51'0 0.0
2017-Nov-15 14:00N 45°15' E 019°51'0 0.0
2017-Nov-15 13:20N 45°15' E 019°51'0 0.0
2017-Nov-15 12:48N 45°15' E 019°51'0 0.0
2017-Nov-15 12:30N 45°15' E 019°51'2 4.8
2017-Nov-15 11:59N 45°13' E 019°49'0 0.0
2017-Nov-15 11:29N 45°13' E 019°49'0 0.0
2017-Nov-15 10:56N 45°13' E 019°49'0 0.0
2017-Nov-15 10:05N 45°13' E 019°49'0 0.0
2017-Nov-15 09:54N 45°13' E 019°49'0 0.0
2017-Nov-15 09:22N 45°13' E 019°49'0 0.0
2017-Nov-15 08:59N 45°13' E 019°49'0 0.0
2017-Nov-15 08:19N 45°13' E 019°49'0 0.0
2017-Nov-15 07:46N 45°13' E 019°49'0 0.0
2017-Nov-15 02:18N 45°13' E 019°49'0 0.4
2017-Nov-15 01:59N 45°13' E 019°49'0 0.0
2017-Nov-15 01:00N 45°13' E 019°49'0 0.0
2017-Nov-15 00:30N 45°13' E 019°49'0 0.0
2017-Nov-14 23:59N 45°13' E 019°49'0 0.0
2017-Nov-14 23:18N 45°13' E 019°49'0 0.0
2017-Nov-14 22:59N 45°13' E 019°49'0 0.0
2017-Nov-14 22:21N 45°13' E 019°49'0 0.0
2017-Nov-14 21:58N 45°13' E 019°49'0 0.0
2017-Nov-14 21:16N 45°13' E 019°49'0 0.0
2017-Nov-14 20:58N 45°13' E 019°49'0 0.0
2017-Nov-14 20:27N 45°13' E 019°49'0 0.0
2017-Nov-14 19:36N 45°13' E 019°49'0 0.0
2017-Nov-14 19:29N 45°13' E 019°49'0 0.0
2017-Nov-14 18:54N 45°13' E 019°49'5 0.9
2017-Nov-14 13:07N 45°12' E 019°56'1 6.6
2017-Nov-14 12:57N 45°12' E 019°58'3 3.4
2017-Nov-14 11:55N 45°10' E 020°02'2 3.5
2017-Nov-14 11:28N 45°10' E 020°04'2 3.7
2017-Nov-14 11:00N 45°10' E 020°07'2 4.0
2017-Nov-14 10:30N 45°11' E 020°10'2 3.1
2017-Nov-14 10:01N 45°11' E 020°12'2 3.3
2017-Nov-14 09:31N 45°10' E 020°14'2 3.2
2017-Nov-14 09:00N 45°09' E 020°15'2 3.4
2017-Nov-14 08:25N 45°07' E 020°17'1 3.2
2017-Nov-14 08:00N 45°06' E 020°18'2 3.1
2017-Nov-14 07:18N 45°05' E 020°20'1 3.2
2017-Nov-14 07:01N 45°04' E 020°21'2 3.3
2017-Nov-14 06:31N 45°02' E 020°22'2 3.4
2017-Nov-14 06:00N 45°01' E 020°22'1 3.0
2017-Nov-14 05:31N 44°60' E 020°20'2 3.3
2017-Nov-14 05:00N 44°59' E 020°18'2 3.2
2017-Nov-14 04:30N 44°58' E 020°17'2 3.1
2017-Nov-14 04:00N 44°56' E 020°18'2 3.2
2017-Nov-14 03:31N 44°55' E 020°20'2 3.5
2017-Nov-14 03:01N 44°54' E 020°21'2 3.4
2017-Nov-14 02:31N 44°52' E 020°22'2 3.3
2017-Nov-14 02:00N 44°51' E 020°24'  

Dump ship's entire track history